createdAt,value
2023-02-15T00:00:20.050Z,0.36
2023-02-15T00:02:46.683Z,0.26
2023-02-15T00:05:13.115Z,0.21
2023-02-15T00:07:40.683Z,0.33
2023-02-15T00:10:08.230Z,0.30
2023-02-15T00:12:51.101Z,0.30
2023-02-15T00:15:26.940Z,0.22
2023-02-15T00:17:55.458Z,0.40
2023-02-15T00:20:24.050Z,0.34
2023-02-15T00:22:51.552Z,0.30
2023-02-15T00:25:20.590Z,0.11
2023-02-15T00:27:48.203Z,0.24
2023-02-15T00:30:16.004Z,0.13
2023-02-15T00:32:42.720Z,0.16
2023-02-15T00:35:10.176Z,0.27
2023-02-15T00:37:42.502Z,0.05
2023-02-15T00:40:16.958Z,0.01
2023-02-15T00:42:43.434Z,0.17
2023-02-15T00:45:17.494Z,0.06
2023-02-15T00:47:44.228Z,0.06
2023-02-15T00:50:10.789Z,0.16
2023-02-15T00:52:37.547Z,0.09
2023-02-15T00:55:04.169Z,0.10
2023-02-15T00:57:30.818Z,0.13
2023-02-15T00:59:57.274Z,0.24
2023-02-15T01:02:23.713Z,0.24
2023-02-15T01:04:51.126Z,0.10
2023-02-15T01:07:17.639Z,-0.06
2023-02-15T01:09:44.176Z,0.04
2023-02-15T01:12:10.665Z,0.07
2023-02-15T01:14:37.088Z,-0.06
2023-02-15T01:17:03.585Z,0.20
2023-02-15T01:19:30.068Z,0.25
2023-02-15T01:21:58.489Z,0.24
2023-02-15T01:24:24.918Z,0.13
2023-02-15T01:26:56.482Z,0.30
2023-02-15T01:29:23.050Z,0.28
2023-02-15T01:31:49.943Z,0.18
2023-02-15T01:34:16.476Z,0.06
2023-02-15T01:36:42.916Z,0.14
2023-02-15T01:39:10.363Z,0.17
2023-02-15T01:41:37.251Z,0.18
2023-02-15T01:44:04.839Z,-0.07
2023-02-15T01:46:35.848Z,0.04
2023-02-15T01:49:10.192Z,0.10
2023-02-15T01:51:46.252Z,0.18
2023-02-15T01:54:18.937Z,-0.04
2023-02-15T01:56:46.111Z,-0.02
2023-02-15T01:59:20.905Z,-0.04
2023-02-15T02:01:47.771Z,-0.02
2023-02-15T02:04:53.936Z,-0.08
2023-02-15T02:07:23.119Z,0.00
2023-02-15T02:10:05.883Z,-0.06
2023-02-15T02:12:32.923Z,-0.15
2023-02-15T02:15:00.132Z,-0.19
2023-02-15T02:18:10.514Z,0.02
2023-02-15T02:21:05.342Z,-0.14
2023-02-15T02:24:11.759Z,-0.07
2023-02-15T02:27:11.375Z,-0.02
2023-02-15T02:30:02.395Z,-0.01
2023-02-15T02:33:03.034Z,0.04
2023-02-15T02:35:49.995Z,-0.11
2023-02-15T02:38:36.444Z,-0.29
2023-02-15T02:41:02.949Z,-0.39
2023-02-15T02:43:36.641Z,-0.23
2023-02-15T02:46:21.494Z,-0.23
2023-02-15T02:48:50.228Z,-0.22
2023-02-15T02:51:22.283Z,-0.09
2023-02-15T02:53:57.382Z,-0.19
2023-02-15T02:56:28.681Z,-0.09
2023-02-15T02:59:25.729Z,-0.27
2023-02-15T03:02:00.011Z,-0.28
2023-02-15T03:04:36.962Z,-0.24
2023-02-15T03:07:12.367Z,-0.11
2023-02-15T03:09:45.269Z,-0.25
2023-02-15T03:12:25.650Z,-0.36
2023-02-15T03:15:05.195Z,-0.23
2023-02-15T03:17:34.616Z,-0.13
2023-02-15T03:20:06.556Z,-0.31
2023-02-15T03:22:37.678Z,-0.41
2023-02-15T03:25:23.396Z,-0.13
2023-02-15T03:28:00.220Z,-0.11
2023-02-15T03:30:32.224Z,-0.09
2023-02-15T03:33:21.734Z,-0.36
2023-02-15T03:36:46.906Z,-0.54
2023-02-15T03:39:35.094Z,-0.51
2023-02-15T03:42:13.593Z,-0.27
2023-02-15T03:44:58.925Z,-0.36
2023-02-15T03:47:31.139Z,-0.32
2023-02-15T03:50:26.230Z,-0.25
2023-02-15T03:52:55.297Z,-0.10
2023-02-15T03:55:22.274Z,-0.18
2023-02-15T03:58:07.572Z,-0.22
2023-02-15T04:00:57.436Z,-0.13
2023-02-15T04:03:34.457Z,-0.06
2023-02-15T04:06:04.153Z,-0.14
2023-02-15T04:08:49.434Z,-0.13
2023-02-15T04:11:16.004Z,-0.11
2023-02-15T04:13:43.707Z,-0.33
2023-02-15T04:16:11.584Z,-0.15
2023-02-15T04:19:02.987Z,-0.24
2023-02-15T04:21:50.050Z,-0.38
2023-02-15T04:24:36.151Z,-0.55
2023-02-15T04:27:18.105Z,-0.70
2023-02-15T04:29:44.566Z,-0.53
2023-02-15T04:32:11.053Z,-0.58
2023-02-15T04:34:37.530Z,-0.42
2023-02-15T04:37:03.944Z,-0.39
2023-02-15T04:39:30.373Z,-0.35
2023-02-15T04:41:56.818Z,-0.35
2023-02-15T04:44:23.769Z,-0.30
2023-02-15T04:46:50.283Z,-0.35
2023-02-15T04:49:18.829Z,-0.50
2023-02-15T04:51:45.348Z,-0.09
2023-02-15T04:54:11.779Z,-0.19
2023-02-15T04:56:39.968Z,-0.41
2023-02-15T04:59:07.654Z,-0.61
2023-02-15T05:01:36.320Z,-0.75
2023-02-15T05:04:09.021Z,-0.74
2023-02-15T05:06:36.031Z,-0.39
2023-02-15T05:09:03.900Z,-0.22
2023-02-15T05:11:30.361Z,-0.35
2023-02-15T05:13:56.873Z,-0.13
2023-02-15T05:16:23.367Z,-0.25
2023-02-15T05:18:49.930Z,-0.28
2023-02-15T05:21:17.525Z,-0.37
2023-02-15T05:23:44.148Z,-0.39
2023-02-15T05:26:43.193Z,-0.33
2023-02-15T05:29:10.584Z,-0.35
2023-02-15T05:31:39.345Z,-0.21
2023-02-15T05:34:05.954Z,-0.11
2023-02-15T05:36:33.498Z,-0.11
2023-02-15T05:39:00.013Z,-0.07
2023-02-15T05:41:27.487Z,-0.06
2023-02-15T05:43:56.828Z,-0.08
2023-02-15T05:46:23.303Z,-0.07
2023-02-15T05:48:49.745Z,-0.07
2023-02-15T05:51:17.102Z,-0.08
2023-02-15T05:53:43.685Z,-0.23
2023-02-15T05:56:11.297Z,-0.09
2023-02-15T05:58:43.152Z,-0.24
2023-02-15T06:01:13.546Z,-0.35
2023-02-15T06:03:42.302Z,-0.44
2023-02-15T06:06:09.876Z,-0.34
2023-02-15T06:08:38.557Z,-0.14
2023-02-15T06:11:06.184Z,-0.07
2023-02-15T06:13:34.426Z,-0.48
2023-02-15T06:16:02.421Z,-0.80
2023-02-15T06:18:29.269Z,-0.42
2023-02-15T06:20:55.772Z,-0.32
2023-02-15T06:23:22.227Z,-0.33
2023-02-15T06:25:48.767Z,-0.17
2023-02-15T06:28:15.287Z,-0.49
2023-02-15T06:30:41.784Z,-0.61
2023-02-15T06:33:08.220Z,-0.31
2023-02-15T06:35:34.739Z,-0.63
2023-02-15T06:38:07.075Z,-0.67
2023-02-15T06:40:33.635Z,-0.63
2023-02-15T06:43:00.125Z,-0.67
2023-02-15T06:45:26.579Z,-0.75
2023-02-15T06:48:00.037Z,-0.62
2023-02-15T06:50:26.497Z,-0.47
2023-02-15T06:52:59.798Z,-0.67
2023-02-15T06:55:26.832Z,-0.50
2023-02-15T06:57:53.363Z,-0.61
2023-02-15T07:00:27.032Z,-0.60
2023-02-15T07:02:58.839Z,-0.74
2023-02-15T07:05:32.152Z,-0.59
2023-02-15T07:08:00.106Z,-0.59
2023-02-15T07:10:28.571Z,-0.62
2023-02-15T07:12:55.190Z,-0.63
2023-02-15T07:15:30.534Z,-0.70
2023-02-15T07:17:58.849Z,-0.67
2023-02-15T07:20:25.353Z,-0.77
2023-02-15T07:23:00.854Z,-0.61
2023-02-15T07:25:27.319Z,-0.55
2023-02-15T07:28:04.773Z,-0.48
2023-02-15T07:30:33.387Z,-0.49
2023-02-15T07:33:18.616Z,-0.49
2023-02-15T07:35:50.129Z,-0.33
2023-02-15T07:38:17.098Z,-0.48
2023-02-15T07:40:44.396Z,-0.28
2023-02-15T07:43:14.530Z,-0.28
2023-02-15T07:45:41.518Z,-0.05
2023-02-15T07:48:08.714Z,-0.24
2023-02-15T07:50:37.156Z,-0.40
2023-02-15T07:53:03.929Z,-0.20
2023-02-15T07:55:30.642Z,-0.27
2023-02-15T07:57:57.394Z,-0.23
2023-02-15T08:00:53.954Z,-0.17
2023-02-15T08:03:20.832Z,0.17
2023-02-15T08:05:47.379Z,-0.03
2023-02-15T08:08:31.863Z,-0.08
2023-02-15T08:11:17.655Z,-0.06
2023-02-15T08:13:54.768Z,-0.21
2023-02-15T08:16:23.132Z,-0.07
2023-02-15T08:18:51.678Z,-0.30
2023-02-15T08:21:26.863Z,-0.39
2023-02-15T08:23:53.873Z,-0.18
2023-02-15T08:26:20.285Z,-0.08
2023-02-15T08:28:47.817Z,-0.14
2023-02-15T08:31:15.017Z,-0.05
2023-02-15T08:33:45.105Z,0.23
2023-02-15T08:36:17.754Z,-0.13
2023-02-15T08:38:44.591Z,-0.11
2023-02-15T08:41:19.857Z,-0.06
2023-02-15T08:43:52.490Z,0.08
2023-02-15T08:46:19.227Z,0.31
2023-02-15T08:48:46.939Z,0.36
2023-02-15T08:51:17.050Z,0.55
2023-02-15T08:53:50.013Z,0.30
2023-02-15T08:56:18.792Z,0.31
2023-02-15T08:58:45.346Z,0.25
2023-02-15T09:01:13.884Z,0.39
2023-02-15T09:03:40.496Z,0.39
2023-02-15T09:06:07.621Z,0.68
2023-02-15T09:08:34.146Z,0.46
2023-02-15T09:11:31.068Z,0.81
2023-02-15T09:14:00.466Z,0.95
2023-02-15T09:16:30.127Z,0.99
2023-02-15T09:18:58.527Z,0.80
2023-02-15T09:21:27.207Z,0.83
2023-02-15T09:23:58.348Z,0.88
2023-02-15T09:26:30.416Z,0.92
2023-02-15T09:28:59.874Z,1.11
2023-02-15T09:31:31.369Z,0.90
2023-02-15T09:34:01.778Z,0.93
2023-02-15T09:36:38.738Z,0.81
2023-02-15T09:39:17.816Z,0.57
2023-02-15T09:42:07.928Z,0.45
2023-02-15T09:44:40.395Z,0.49
2023-02-15T09:47:31.940Z,0.52
2023-02-15T09:50:22.381Z,0.57
2023-02-15T09:53:23.840Z,0.80
2023-02-15T09:55:50.247Z,0.75
2023-02-15T09:58:46.959Z,0.94
2023-02-15T10:01:26.122Z,1.23
2023-02-15T10:04:01.855Z,1.29
2023-02-15T10:06:49.608Z,1.51
2023-02-15T10:09:28.278Z,1.10
2023-02-15T10:12:19.605Z,1.16
2023-02-15T10:15:12.788Z,1.09
2023-02-15T10:17:46.797Z,1.04
2023-02-15T10:20:52.392Z,1.35
2023-02-15T10:23:33.050Z,1.33
2023-02-15T10:26:25.640Z,0.89
2023-02-15T10:28:53.483Z,0.95
2023-02-15T10:31:26.206Z,1.15
2023-02-15T10:34:20.012Z,1.26
2023-02-15T10:37:05.358Z,1.64
2023-02-15T10:39:50.227Z,1.46
2023-02-15T10:42:31.611Z,1.53
2023-02-15T10:45:29.073Z,1.51
2023-02-15T10:48:07.598Z,1.35
2023-02-15T10:50:46.206Z,1.36
2023-02-15T10:53:35.552Z,1.42
2023-02-15T10:56:22.715Z,1.18
2023-02-15T10:59:08.015Z,1.13
2023-02-15T11:01:39.447Z,1.10
2023-02-15T11:04:33.662Z,1.20
2023-02-15T11:07:17.218Z,0.83
2023-02-15T11:09:57.019Z,1.26
2023-02-15T11:12:28.061Z,1.20
2023-02-15T11:15:16.355Z,0.96
2023-02-15T11:17:49.452Z,1.27
2023-02-15T11:20:37.587Z,1.58
2023-02-15T11:23:17.207Z,1.66
2023-02-15T11:25:56.051Z,1.57
2023-02-15T11:28:34.331Z,1.54
2023-02-15T11:31:12.245Z,2.00
2023-02-15T11:33:44.191Z,2.18
2023-02-15T11:36:14.443Z,2.09
2023-02-15T11:38:44.440Z,2.12
2023-02-15T11:41:14.574Z,2.23
2023-02-15T11:43:45.719Z,2.47
2023-02-15T11:46:13.968Z,2.71
2023-02-15T11:48:40.718Z,2.40
2023-02-15T11:51:14.632Z,2.42
2023-02-15T11:53:45.554Z,2.58
2023-02-15T11:56:17.173Z,2.54
2023-02-15T11:58:59.127Z,2.66
2023-02-15T12:01:30.978Z,2.54
2023-02-15T12:04:10.151Z,2.29
2023-02-15T12:06:49.020Z,2.69
2023-02-15T12:09:51.944Z,2.72
2023-02-15T12:12:30.586Z,2.75
2023-02-15T12:15:07.657Z,2.93
2023-02-15T12:17:38.920Z,2.96
2023-02-15T12:20:30.286Z,3.16
2023-02-15T12:23:04.824Z,3.11
2023-02-15T12:25:44.506Z,3.26
2023-02-15T12:28:41.602Z,2.63
2023-02-15T12:31:31.077Z,2.99
2023-02-15T12:34:03.755Z,3.20
2023-02-15T12:36:45.425Z,2.93
2023-02-15T12:39:14.870Z,2.42
2023-02-15T12:41:59.949Z,2.59
2023-02-15T12:44:38.127Z,2.55
2023-02-15T12:47:06.053Z,2.72
2023-02-15T12:49:34.988Z,2.65
2023-02-15T12:52:04.693Z,2.68
2023-02-15T12:54:42.805Z,2.36
2023-02-15T12:57:26.193Z,2.63
2023-02-15T13:00:24.466Z,2.57
2023-02-15T13:02:54.666Z,2.58
2023-02-15T13:05:21.108Z,2.65
2023-02-15T13:07:51.840Z,2.77
2023-02-15T13:10:31.694Z,2.80
2023-02-15T13:12:59.365Z,3.21
2023-02-15T13:15:31.126Z,2.51
2023-02-15T13:18:01.924Z,3.09
2023-02-15T13:20:29.706Z,2.79
2023-02-15T13:23:07.273Z,2.74
2023-02-15T13:26:04.172Z,2.66
2023-02-15T13:28:43.396Z,2.56
2023-02-15T13:31:15.560Z,2.60
2023-02-15T13:33:48.330Z,2.71
2023-02-15T13:36:28.897Z,2.69
2023-02-15T13:39:01.713Z,2.42
2023-02-15T13:42:11.670Z,2.39
2023-02-15T13:44:59.654Z,2.51
2023-02-15T13:48:03.671Z,2.01
2023-02-15T13:50:53.157Z,2.21
2023-02-15T13:53:38.472Z,2.11
2023-02-15T13:56:30.863Z,1.96
2023-02-15T13:59:15.813Z,2.04
2023-02-15T14:01:57.076Z,2.27
2023-02-15T14:04:33.163Z,2.17
2023-02-15T14:07:17.882Z,1.77
2023-02-15T14:10:01.330Z,2.09
2023-02-15T14:12:37.406Z,2.42
2023-02-15T14:15:42.105Z,2.50
2023-02-15T14:18:34.205Z,2.17
2023-02-15T14:21:26.748Z,2.33
2023-02-15T14:24:39.730Z,2.08
2023-02-15T14:27:20.717Z,1.92
2023-02-15T14:30:15.139Z,2.18
2023-02-15T14:32:56.419Z,1.95
2023-02-15T14:35:27.378Z,1.57
2023-02-15T14:37:53.885Z,1.78
2023-02-15T14:40:48.314Z,1.68
2023-02-15T14:43:32.298Z,1.68
2023-02-15T14:46:04.016Z,1.54
2023-02-15T14:48:43.285Z,1.86
2023-02-15T14:51:10.282Z,1.71
2023-02-15T14:53:39.429Z,2.10
2023-02-15T14:56:11.811Z,1.93
2023-02-15T14:58:39.307Z,1.69
2023-02-15T15:01:09.433Z,1.77
2023-02-15T15:03:36.838Z,1.92
2023-02-15T15:06:06.101Z,1.86
2023-02-15T15:08:41.163Z,1.66
2023-02-15T15:11:42.529Z,1.73
2023-02-15T15:14:11.557Z,1.75
2023-02-15T15:16:38.231Z,1.62
2023-02-15T15:19:12.756Z,1.32
2023-02-15T15:21:51.459Z,1.62
2023-02-15T15:24:39.707Z,1.73
2023-02-15T15:27:41.440Z,1.60
2023-02-15T15:30:14.256Z,1.69
2023-02-15T15:32:59.981Z,1.66
2023-02-15T15:36:14.249Z,1.52
2023-02-15T15:38:56.986Z,1.41
2023-02-15T15:41:56.352Z,1.21
2023-02-15T15:44:59.886Z,1.26
2023-02-15T15:47:38.374Z,1.33
2023-02-15T15:50:22.823Z,1.09
2023-02-15T15:52:54.502Z,1.06
2023-02-15T15:55:24.983Z,1.05
2023-02-15T15:58:00.811Z,1.20
2023-02-15T16:00:33.519Z,1.18
2023-02-15T16:03:00.358Z,1.35
2023-02-15T16:05:36.198Z,1.21
2023-02-15T16:08:02.808Z,1.47
2023-02-15T16:10:33.522Z,1.55
2023-02-15T16:13:00.296Z,1.38
2023-02-15T16:15:50.517Z,1.19
2023-02-15T16:18:18.488Z,1.15
2023-02-15T16:20:53.919Z,1.51
2023-02-15T16:23:54.363Z,1.24
2023-02-15T16:26:40.938Z,1.35
2023-02-15T16:29:27.996Z,1.31
2023-02-15T16:32:03.001Z,0.83
2023-02-15T16:34:33.410Z,0.68
2023-02-15T16:37:18.401Z,0.64
2023-02-15T16:39:46.434Z,0.67
2023-02-15T16:42:15.718Z,0.86
2023-02-15T16:44:57.740Z,1.08
2023-02-15T16:47:32.419Z,0.98
2023-02-15T16:50:03.773Z,0.67
2023-02-15T16:52:30.834Z,1.04
2023-02-15T16:55:05.736Z,1.02
2023-02-15T16:57:37.651Z,1.09
2023-02-15T17:00:18.332Z,0.87
2023-02-15T17:03:06.078Z,0.87
2023-02-15T17:05:50.649Z,0.62
2023-02-15T17:08:34.794Z,0.61
2023-02-15T17:11:33.512Z,0.74
2023-02-15T17:14:06.572Z,0.59
2023-02-15T17:16:54.560Z,0.75
2023-02-15T17:19:25.645Z,0.84
2023-02-15T17:22:04.606Z,0.86
2023-02-15T17:24:40.984Z,0.82
2023-02-15T17:27:25.032Z,0.89
2023-02-15T17:30:00.603Z,0.41
2023-02-15T17:32:39.148Z,0.44
2023-02-15T17:35:05.593Z,0.56
2023-02-15T17:37:40.217Z,0.37
2023-02-15T17:40:36.590Z,0.34
2023-02-15T17:43:04.299Z,0.38
2023-02-15T17:45:58.495Z,0.25
2023-02-15T17:48:35.522Z,0.05
2023-02-15T17:51:07.449Z,0.49
2023-02-15T17:53:34.273Z,0.45
2023-02-15T17:56:11.967Z,0.15
2023-02-15T17:58:46.460Z,-0.04
2023-02-15T18:01:38.531Z,0.25
2023-02-15T18:04:24.673Z,0.48
2023-02-15T18:07:10.131Z,0.46
2023-02-15T18:09:55.027Z,0.25
2023-02-15T18:12:24.155Z,0.10
2023-02-15T18:14:51.504Z,0.29
2023-02-15T18:17:38.295Z,0.12
2023-02-15T18:20:24.339Z,0.28
2023-02-15T18:22:52.422Z,0.44
2023-02-15T18:25:20.873Z,0.28
2023-02-15T18:27:49.528Z,0.26
2023-02-15T18:30:20.594Z,0.62
2023-02-15T18:32:51.327Z,0.22
2023-02-15T18:35:22.268Z,-0.31
2023-02-15T18:37:49.801Z,-0.07
2023-02-15T18:40:24.903Z,0.11
2023-02-15T18:43:02.493Z,0.13
2023-02-15T18:45:36.064Z,0.18
2023-02-15T18:48:04.754Z,0.09
2023-02-15T18:50:34.906Z,-0.05
2023-02-15T18:53:03.362Z,-0.14
2023-02-15T18:55:36.953Z,-0.11
2023-02-15T18:58:06.697Z,-0.20
2023-02-15T19:00:35.547Z,-0.24
2023-02-15T19:03:02.907Z,-0.14
2023-02-15T19:05:31.810Z,-0.04
2023-02-15T19:08:00.578Z,-0.22
2023-02-15T19:10:30.647Z,-0.03
2023-02-15T19:13:11.029Z,-0.27
2023-02-15T19:15:39.117Z,-0.23
2023-02-15T19:18:05.969Z,-0.17
2023-02-15T19:20:46.877Z,-0.37
2023-02-15T19:23:23.321Z,0.05
2023-02-15T19:25:51.521Z,0.19
2023-02-15T19:28:19.684Z,0.42
2023-02-15T19:30:50.373Z,0.22
2023-02-15T19:33:19.128Z,0.10
2023-02-15T19:35:52.299Z,0.25
2023-02-15T19:38:22.576Z,0.04
2023-02-15T19:40:50.001Z,-0.03
2023-02-15T19:43:19.538Z,0.04
2023-02-15T19:45:48.067Z,0.07
2023-02-15T19:48:14.967Z,0.03
2023-02-15T19:50:59.868Z,-0.29
2023-02-15T19:53:32.288Z,-0.38
2023-02-15T19:55:59.556Z,-0.43
2023-02-15T19:58:33.805Z,-0.27
2023-02-15T20:01:00.387Z,-0.21
2023-02-15T20:03:29.355Z,-0.11
2023-02-15T20:06:15.371Z,-0.09
2023-02-15T20:08:46.924Z,-0.41
2023-02-15T20:11:13.853Z,-0.42
2023-02-15T20:13:48.081Z,-0.47
2023-02-15T20:16:16.702Z,-0.43
2023-02-15T20:18:46.505Z,-0.37
2023-02-15T20:21:16.446Z,-0.34
2023-02-15T20:23:42.957Z,-0.28
2023-02-15T20:26:18.151Z,-0.32
2023-02-15T20:28:46.902Z,-0.25
2023-02-15T20:31:17.650Z,-0.32
2023-02-15T20:33:44.305Z,-0.33
2023-02-15T20:36:15.062Z,-0.65
2023-02-15T20:38:45.159Z,-0.73
2023-02-15T20:41:35.797Z,-0.78
2023-02-15T20:44:09.121Z,-0.55
2023-02-15T20:46:35.622Z,-0.58
2023-02-15T20:49:02.105Z,-0.61
2023-02-15T20:51:28.578Z,-0.59
2023-02-15T20:53:55.301Z,-0.77
2023-02-15T20:56:23.886Z,-0.59
2023-02-15T20:58:53.224Z,-0.62
2023-02-15T21:01:20.128Z,-0.55
2023-02-15T21:03:47.272Z,-0.44
2023-02-15T21:06:17.759Z,-0.80
2023-02-15T21:08:44.281Z,-0.47
2023-02-15T21:11:19.922Z,-0.54
2023-02-15T21:13:47.652Z,-0.69
2023-02-15T21:16:14.525Z,-0.75
2023-02-15T21:18:42.372Z,-0.87
2023-02-15T21:21:22.247Z,-0.81
2023-02-15T21:23:48.908Z,-0.84
2023-02-15T21:26:19.664Z,-0.69
2023-02-15T21:28:47.369Z,-0.53
2023-02-15T21:31:17.721Z,-0.59
2023-02-15T21:33:44.461Z,-0.57
2023-02-15T21:36:20.840Z,-0.66
2023-02-15T21:38:47.816Z,-0.80
2023-02-15T21:41:42.714Z,-0.60
2023-02-15T21:44:39.315Z,-0.58
2023-02-15T21:47:35.615Z,-0.42
2023-02-15T21:50:22.078Z,-0.67
2023-02-15T21:52:48.684Z,-0.70
2023-02-15T21:55:16.038Z,-0.67
2023-02-15T21:57:42.587Z,-0.85
2023-02-15T22:00:24.845Z,-0.59
2023-02-15T22:02:58.215Z,-0.74
2023-02-15T22:05:28.450Z,-0.79
2023-02-15T22:07:57.228Z,-0.85
2023-02-15T22:10:30.389Z,-0.56
2023-02-15T22:12:59.386Z,-0.45
2023-02-15T22:15:32.475Z,-0.60
2023-02-15T22:18:02.165Z,-0.40
2023-02-15T22:20:28.674Z,-0.53
2023-02-15T22:22:59.225Z,-0.77
2023-02-15T22:25:27.107Z,-0.40
2023-02-15T22:28:00.630Z,-0.66
2023-02-15T22:30:32.731Z,-0.80
2023-02-15T22:33:00.209Z,-0.68
2023-02-15T22:35:32.468Z,-0.81
2023-02-15T22:38:00.420Z,-0.99
2023-02-15T22:40:32.766Z,-0.76
2023-02-15T22:43:04.905Z,-0.77
2023-02-15T22:45:35.612Z,-0.76
2023-02-15T22:48:02.453Z,-0.63
2023-02-15T22:50:31.670Z,-0.68
2023-02-15T22:53:02.392Z,-1.04
2023-02-15T22:55:32.756Z,-0.97
2023-02-15T22:58:00.551Z,-0.84
2023-02-15T23:00:30.649Z,-0.43
2023-02-15T23:03:01.001Z,-0.62
2023-02-15T23:05:30.218Z,-0.68
2023-02-15T23:07:58.366Z,-0.69
2023-02-15T23:10:26.419Z,-0.80
2023-02-15T23:13:14.081Z,-0.82
2023-02-15T23:15:43.242Z,-0.98
2023-02-15T23:18:18.109Z,-1.01
2023-02-15T23:21:27.102Z,-1.08
2023-02-15T23:23:57.553Z,-0.83
2023-02-15T23:26:31.612Z,-0.85
2023-02-15T23:29:00.344Z,-0.96
2023-02-15T23:31:40.300Z,-0.97
2023-02-15T23:34:17.395Z,-0.81
2023-02-15T23:36:44.576Z,-1.00
2023-02-15T23:39:34.867Z,-0.91
2023-02-15T23:42:05.064Z,-0.90
2023-02-15T23:44:31.593Z,-1.01
2023-02-15T23:47:04.720Z,-1.16
2023-02-15T23:49:31.129Z,-1.04
2023-02-15T23:51:57.847Z,-1.06
2023-02-15T23:54:26.326Z,-1.09
2023-02-15T23:56:55.421Z,-1.12
2023-02-15T23:59:25.864Z,-1.13
